sensor_id;sensor_type;location;lat;lon;timestamp;temperature;humidity
41628;DHT22;27321;50.816;6.054;2024-03-29T00:02:29;10.50;60.50
41628;DHT22;27321;50.816;6.054;2024-03-29T00:05:30;10.50;60.50
41628;DHT22;27321;50.816;6.054;2024-03-29T00:08:31;10.40;60.50
41628;DHT22;27321;50.816;6.054;2024-03-29T00:11:32;10.50;60.60
41628;DHT22;27321;50.816;6.054;2024-03-29T00:14:33;10.40;60.40
41628;DHT22;27321;50.816;6.054;2024-03-29T00:17:34;10.50;60.50
41628;DHT22;27321;50.816;6.054;2024-03-29T00:20:35;10.40;60.60
41628;DHT22;27321;50.816;6.054;2024-03-29T00:23:36;10.40;60.80
41628;DHT22;27321;50.816;6.054;2024-03-29T00:26:38;10.40;60.90
41628;DHT22;27321;50.816;6.054;2024-03-29T00:29:39;10.50;60.70
41628;DHT22;27321;50.816;6.054;2024-03-29T00:32:40;10.50;60.50
41628;DHT22;27321;50.816;6.054;2024-03-29T00:35:41;10.50;60.50
41628;DHT22;27321;50.816;6.054;2024-03-29T00:38:42;10.50;60.20
41628;DHT22;27321;50.816;6.054;2024-03-29T00:41:43;10.40;60.10
41628;DHT22;27321;50.816;6.054;2024-03-29T00:44:44;10.50;60.30
41628;DHT22;27321;50.816;6.054;2024-03-29T00:47:45;10.60;60.50
41628;DHT22;27321;50.816;6.054;2024-03-29T00:50:46;10.60;60.50
41628;DHT22;27321;50.816;6.054;2024-03-29T00:53:48;10.60;60.30
41628;DHT22;27321;50.816;6.054;2024-03-29T00:56:50;10.60;60.00
41628;DHT22;27321;50.816;6.054;2024-03-29T00:59:51;10.60;60.10
41628;DHT22;27321;50.816;6.054;2024-03-29T01:02:52;10.70;60.00
41628;DHT22;27321;50.816;6.054;2024-03-29T01:05:53;10.70;59.60
41628;DHT22;27321;50.816;6.054;2024-03-29T01:08:54;10.70;59.80
41628;DHT22;27321;50.816;6.054;2024-03-29T01:11:55;10.70;59.50
41628;DHT22;27321;50.816;6.054;2024-03-29T01:14:56;10.80;59.50
41628;DHT22;27321;50.816;6.054;2024-03-29T01:17:57;10.80;59.60
41628;DHT22;27321;50.816;6.054;2024-03-29T01:20:58;10.80;59.40
41628;DHT22;27321;50.816;6.054;2024-03-29T01:23:59;10.80;59.20
41628;DHT22;27321;50.816;6.054;2024-03-29T01:27:00;10.80;59.10
41628;DHT22;27321;50.816;6.054;2024-03-29T01:30:02;10.80;59.20
41628;DHT22;27321;50.816;6.054;2024-03-29T01:33:04;10.80;59.10
41628;DHT22;27321;50.816;6.054;2024-03-29T01:36:06;10.90;58.80
41628;DHT22;27321;50.816;6.054;2024-03-29T01:39:08;10.80;58.80
41628;DHT22;27321;50.816;6.054;2024-03-29T01:42:11;10.90;58.80
41628;DHT22;27321;50.816;6.054;2024-03-29T01:45:12;10.90;58.50
41628;DHT22;27321;50.816;6.054;2024-03-29T01:48:13;10.90;58.40
41628;DHT22;27321;50.816;6.054;2024-03-29T01:51:15;10.90;58.50
41628;DHT22;27321;50.816;6.054;2024-03-29T01:54:17;11.00;58.10
41628;DHT22;27321;50.816;6.054;2024-03-29T01:57:19;11.00;58.10
41628;DHT22;27321;50.816;6.054;2024-03-29T02:00:20;11.00;58.00
41628;DHT22;27321;50.816;6.054;2024-03-29T02:03:21;11.00;57.80
41628;DHT22;27321;50.816;6.054;2024-03-29T02:06:23;11.00;57.60
41628;DHT22;27321;50.816;6.054;2024-03-29T02:09:24;11.00;57.90
41628;DHT22;27321;50.816;6.054;2024-03-29T02:12:25;11.00;58.10
41628;DHT22;27321;50.816;6.054;2024-03-29T02:15:31;11.00;57.90
41628;DHT22;27321;50.816;6.054;2024-03-29T02:18:32;11.00;58.10
41628;DHT22;27321;50.816;6.054;2024-03-29T02:21:36;11.10;58.50
41628;DHT22;27321;50.816;6.054;2024-03-29T02:24:38;11.10;58.90
41628;DHT22;27321;50.816;6.054;2024-03-29T02:27:40;11.10;59.60
41628;DHT22;27321;50.816;6.054;2024-03-29T02:30:41;11.10;60.80
41628;DHT22;27321;50.816;6.054;2024-03-29T02:33:42;11.10;61.90
41628;DHT22;27321;50.816;6.054;2024-03-29T02:36:42;11.10;62.90
41628;DHT22;27321;50.816;6.054;2024-03-29T02:39:44;11.00;63.40
41628;DHT22;27321;50.816;6.054;2024-03-29T02:42:49;11.00;64.10
41628;DHT22;27321;50.816;6.054;2024-03-29T02:45:50;11.00;64.30
41628;DHT22;27321;50.816;6.054;2024-03-29T02:48:51;10.90;64.40
41628;DHT22;27321;50.816;6.054;2024-03-29T02:51:52;10.90;64.60
41628;DHT22;27321;50.816;6.054;2024-03-29T02:54:53;10.90;64.70
41628;DHT22;27321;50.816;6.054;2024-03-29T02:57:54;10.90;64.70
41628;DHT22;27321;50.816;6.054;2024-03-29T03:00:55;10.90;64.70
41628;DHT22;27321;50.816;6.054;2024-03-29T03:03:56;10.90;64.70
41628;DHT22;27321;50.816;6.054;2024-03-29T03:06:57;11.00;64.60
41628;DHT22;27321;50.816;6.054;2024-03-29T03:10:18;11.00;64.10
41628;DHT22;27321;50.816;6.054;2024-03-29T03:13:37;10.90;64.70
41628;DHT22;27321;50.816;6.054;2024-03-29T03:16:38;11.00;64.70
41628;DHT22;27321;50.816;6.054;2024-03-29T03:19:39;11.00;64.80
41628;DHT22;27321;50.816;6.054;2024-03-29T03:22:40;11.00;64.90
41628;DHT22;27321;50.816;6.054;2024-03-29T03:25:40;11.00;64.80
41628;DHT22;27321;50.816;6.054;2024-03-29T03:28:41;11.00;65.00
41628;DHT22;27321;50.816;6.054;2024-03-29T03:31:42;11.00;65.10
41628;DHT22;27321;50.816;6.054;2024-03-29T03:34:43;11.00;65.20
41628;DHT22;27321;50.816;6.054;2024-03-29T03:37:44;11.00;64.80
41628;DHT22;27321;50.816;6.054;2024-03-29T03:40:45;11.00;64.90
41628;DHT22;27321;50.816;6.054;2024-03-29T03:43:46;10.90;65.20
41628;DHT22;27321;50.816;6.054;2024-03-29T03:46:47;10.90;65.30
41628;DHT22;27321;50.816;6.054;2024-03-29T03:49:48;10.90;65.90
41628;DHT22;27321;50.816;6.054;2024-03-29T03:52:49;10.90;66.10
41628;DHT22;27321;50.816;6.054;2024-03-29T03:55:50;10.90;66.20
41628;DHT22;27321;50.816;6.054;2024-03-29T03:58:51;11.00;66.50
41628;DHT22;27321;50.816;6.054;2024-03-29T04:01:52;11.00;66.60
41628;DHT22;27321;50.816;6.054;2024-03-29T04:04:54;11.00;66.50
41628;DHT22;27321;50.816;6.054;2024-03-29T04:07:55;10.90;66.60
41628;DHT22;27321;50.816;6.054;2024-03-29T04:10:56;11.00;67.10
41628;DHT22;27321;50.816;6.054;2024-03-29T04:13:57;10.90;67.30
41628;DHT22;27321;50.816;6.054;2024-03-29T04:16:58;11.00;67.60
41628;DHT22;27321;50.816;6.054;2024-03-29T04:20:00;11.00;67.50
41628;DHT22;27321;50.816;6.054;2024-03-29T04:23:07;10.90;67.90
41628;DHT22;27321;50.816;6.054;2024-03-29T04:26:08;10.90;68.10
41628;DHT22;27321;50.816;6.054;2024-03-29T04:29:08;10.90;68.10
41628;DHT22;27321;50.816;6.054;2024-03-29T04:32:09;10.90;67.50
41628;DHT22;27321;50.816;6.054;2024-03-29T04:35:10;10.90;67.50
41628;DHT22;27321;50.816;6.054;2024-03-29T04:38:11;10.90;67.50
41628;DHT22;27321;50.816;6.054;2024-03-29T04:41:12;10.90;67.50
41628;DHT22;27321;50.816;6.054;2024-03-29T04:44:22;10.80;67.40
41628;DHT22;27321;50.816;6.054;2024-03-29T04:47:24;10.80;67.50
41628;DHT22;27321;50.816;6.054;2024-03-29T04:50:25;10.80;67.60
41628;DHT22;27321;50.816;6.054;2024-03-29T04:53:26;10.80;67.80
41628;DHT22;27321;50.816;6.054;2024-03-29T04:56:26;10.80;68.10
41628;DHT22;27321;50.816;6.054;2024-03-29T04:59:28;10.80;68.60
41628;DHT22;27321;50.816;6.054;2024-03-29T05:02:29;10.80;69.00
41628;DHT22;27321;50.816;6.054;2024-03-29T05:05:30;10.80;69.10
41628;DHT22;27321;50.816;6.054;2024-03-29T05:08:34;10.80;69.30
41628;DHT22;27321;50.816;6.054;2024-03-29T05:11:35;10.90;69.50
41628;DHT22;27321;50.816;6.054;2024-03-29T05:14:36;10.90;69.80
41628;DHT22;27321;50.816;6.054;2024-03-29T05:17:37;10.90;69.90
41628;DHT22;27321;50.816;6.054;2024-03-29T05:21:48;10.90;70.10
41628;DHT22;27321;50.816;6.054;2024-03-29T05:24:18;10.90;70.30
41628;DHT22;27321;50.816;6.054;2024-03-29T05:27:19;10.80;70.30
41628;DHT22;27321;50.816;6.054;2024-03-29T05:30:21;10.80;70.60
41628;DHT22;27321;50.816;6.054;2024-03-29T05:33:21;10.80;70.80
41628;DHT22;27321;50.816;6.054;2024-03-29T05:36:22;10.80;70.90
41628;DHT22;27321;50.816;6.054;2024-03-29T05:39:24;10.80;71.10
41628;DHT22;27321;50.816;6.054;2024-03-29T05:42:30;10.80;71.40
41628;DHT22;27321;50.816;6.054;2024-03-29T05:45:32;10.80;71.60
41628;DHT22;27321;50.816;6.054;2024-03-29T05:48:33;10.80;71.80
41628;DHT22;27321;50.816;6.054;2024-03-29T05:51:34;10.80;72.10
41628;DHT22;27321;50.816;6.054;2024-03-29T05:54:36;10.80;72.40
41628;DHT22;27321;50.816;6.054;2024-03-29T05:57:37;10.80;72.70
41628;DHT22;27321;50.816;6.054;2024-03-29T06:00:45;10.80;72.90
41628;DHT22;27321;50.816;6.054;2024-03-29T06:03:46;10.80;73.30
41628;DHT22;27321;50.816;6.054;2024-03-29T06:06:47;10.80;73.40
41628;DHT22;27321;50.816;6.054;2024-03-29T06:09:48;10.80;73.60
41628;DHT22;27321;50.816;6.054;2024-03-29T06:12:49;10.90;73.80
41628;DHT22;27321;50.816;6.054;2024-03-29T06:15:50;10.90;73.80
41628;DHT22;27321;50.816;6.054;2024-03-29T06:19:09;10.90;73.70
41628;DHT22;27321;50.816;6.054;2024-03-29T06:22:11;11.00;74.00
41628;DHT22;27321;50.816;6.054;2024-03-29T06:25:12;11.00;74.10
41628;DHT22;27321;50.816;6.054;2024-03-29T06:28:40;11.00;74.10
41628;DHT22;27321;50.816;6.054;2024-03-29T06:31:42;11.00;74.20
41628;DHT22;27321;50.816;6.054;2024-03-29T06:34:42;11.10;74.50
41628;DHT22;27321;50.816;6.054;2024-03-29T06:37:43;11.10;74.40
41628;DHT22;27321;50.816;6.054;2024-03-29T06:40:44;11.10;74.60
41628;DHT22;27321;50.816;6.054;2024-03-29T06:43:46;11.10;74.80
41628;DHT22;27321;50.816;6.054;2024-03-29T06:46:47;11.10;74.90
41628;DHT22;27321;50.816;6.054;2024-03-29T06:50:14;11.10;75.00
41628;DHT22;27321;50.816;6.054;2024-03-29T06:54:03;11.20;75.20
41628;DHT22;27321;50.816;6.054;2024-03-29T06:57:22;11.30;75.30
41628;DHT22;27321;50.816;6.054;2024-03-29T07:01:10;11.30;75.30
41628;DHT22;27321;50.816;6.054;2024-03-29T07:04:14;11.40;75.60
41628;DHT22;27321;50.816;6.054;2024-03-29T07:07:15;11.40;75.40
41628;DHT22;27321;50.816;6.054;2024-03-29T07:10:20;11.50;75.60
41628;DHT22;27321;50.816;6.054;2024-03-29T07:13:21;11.50;75.60
41628;DHT22;27321;50.816;6.054;2024-03-29T07:16:22;11.50;75.00
41628;DHT22;27321;50.816;6.054;2024-03-29T07:19:23;11.60;75.20
41628;DHT22;27321;50.816;6.054;2024-03-29T07:22:24;11.60;75.50
41628;DHT22;27321;50.816;6.054;2024-03-29T07:25:28;11.70;75.60
41628;DHT22;27321;50.816;6.054;2024-03-29T07:28:30;11.70;75.50
41628;DHT22;27321;50.816;6.054;2024-03-29T07:31:31;11.80;75.10
41628;DHT22;27321;50.816;6.054;2024-03-29T07:34:33;11.80;75.30
41628;DHT22;27321;50.816;6.054;2024-03-29T07:37:34;11.80;75.30
41628;DHT22;27321;50.816;6.054;2024-03-29T07:40:35;11.80;75.20
41628;DHT22;27321;50.816;6.054;2024-03-29T07:43:57;11.90;75.30
41628;DHT22;27321;50.816;6.054;2024-03-29T07:47:02;11.90;75.00
41628;DHT22;27321;50.816;6.054;2024-03-29T07:50:04;11.90;74.70
41628;DHT22;27321;50.816;6.054;2024-03-29T07:53:07;11.90;74.90
41628;DHT22;27321;50.816;6.054;2024-03-29T07:56:08;12.00;75.00
41628;DHT22;27321;50.816;6.054;2024-03-29T07:59:09;12.00;75.10
41628;DHT22;27321;50.816;6.054;2024-03-29T08:02:10;12.10;75.00
41628;DHT22;27321;50.816;6.054;2024-03-29T08:05:11;12.10;75.00
41628;DHT22;27321;50.816;6.054;2024-03-29T08:08:12;12.20;75.10
41628;DHT22;27321;50.816;6.054;2024-03-29T08:11:16;12.30;74.80
41628;DHT22;27321;50.816;6.054;2024-03-29T08:14:17;12.30;74.80
41628;DHT22;27321;50.816;6.054;2024-03-29T08:17:18;12.40;74.60
41628;DHT22;27321;50.816;6.054;2024-03-29T08:20:19;12.50;74.50
41628;DHT22;27321;50.816;6.054;2024-03-29T08:23:20;12.60;73.80
41628;DHT22;27321;50.816;6.054;2024-03-29T08:26:28;12.60;73.80
41628;DHT22;27321;50.816;6.054;2024-03-29T08:29:29;12.70;73.60
41628;DHT22;27321;50.816;6.054;2024-03-29T08:32:30;12.80;73.20
41628;DHT22;27321;50.816;6.054;2024-03-29T08:35:35;12.80;73.20
41628;DHT22;27321;50.816;6.054;2024-03-29T08:38:36;12.80;72.80
41628;DHT22;27321;50.816;6.054;2024-03-29T08:41:37;12.90;72.60
41628;DHT22;27321;50.816;6.054;2024-03-29T08:44:39;12.90;72.10
41628;DHT22;27321;50.816;6.054;2024-03-29T08:47:42;12.90;72.20
41628;DHT22;27321;50.816;6.054;2024-03-29T08:50:43;13.00;71.80
41628;DHT22;27321;50.816;6.054;2024-03-29T08:53:44;13.00;71.50
41628;DHT22;27321;50.816;6.054;2024-03-29T08:56:45;13.00;71.20
41628;DHT22;27321;50.816;6.054;2024-03-29T08:59:46;13.10;70.70
41628;DHT22;27321;50.816;6.054;2024-03-29T09:02:47;13.20;71.20
41628;DHT22;27321;50.816;6.054;2024-03-29T09:05:49;13.30;70.60
41628;DHT22;27321;50.816;6.054;2024-03-29T09:08:50;13.40;70.70
41628;DHT22;27321;50.816;6.054;2024-03-29T09:11:51;13.50;70.30
41628;DHT22;27321;50.816;6.054;2024-03-29T09:14:52;13.60;69.60
41628;DHT22;27321;50.816;6.054;2024-03-29T09:17:53;13.60;69.60
41628;DHT22;27321;50.816;6.054;2024-03-29T09:20:56;13.70;69.20
41628;DHT22;27321;50.816;6.054;2024-03-29T09:23:58;13.80;70.10
41628;DHT22;27321;50.816;6.054;2024-03-29T09:27:00;13.90;69.30
41628;DHT22;27321;50.816;6.054;2024-03-29T09:30:04;13.90;68.90
41628;DHT22;27321;50.816;6.054;2024-03-29T09:33:08;13.90;67.70
41628;DHT22;27321;50.816;6.054;2024-03-29T09:36:10;13.90;68.10
41628;DHT22;27321;50.816;6.054;2024-03-29T09:39:12;14.00;68.30
41628;DHT22;27321;50.816;6.054;2024-03-29T09:42:17;14.10;68.40
41628;DHT22;27321;50.816;6.054;2024-03-29T09:45:19;14.10;67.80
41628;DHT22;27321;50.816;6.054;2024-03-29T09:48:23;14.20;67.60
41628;DHT22;27321;50.816;6.054;2024-03-29T09:51:24;14.10;67.50
41628;DHT22;27321;50.816;6.054;2024-03-29T09:54:28;14.20;67.70
41628;DHT22;27321;50.816;6.054;2024-03-29T09:57:29;14.20;67.30
41628;DHT22;27321;50.816;6.054;2024-03-29T10:00:31;14.20;67.30
41628;DHT22;27321;50.816;6.054;2024-03-29T10:03:34;14.30;67.30
41628;DHT22;27321;50.816;6.054;2024-03-29T10:06:38;14.20;67.00
41628;DHT22;27321;50.816;6.054;2024-03-29T10:09:41;14.20;66.80
41628;DHT22;27321;50.816;6.054;2024-03-29T10:12:44;14.30;66.70
41628;DHT22;27321;50.816;6.054;2024-03-29T10:15:45;14.40;67.10
41628;DHT22;27321;50.816;6.054;2024-03-29T10:18:50;14.40;66.70
41628;DHT22;27321;50.816;6.054;2024-03-29T10:21:51;14.50;66.40
41628;DHT22;27321;50.816;6.054;2024-03-29T10:24:52;14.50;66.20
41628;DHT22;27321;50.816;6.054;2024-03-29T10:27:53;14.60;66.30
41628;DHT22;27321;50.816;6.054;2024-03-29T10:30:55;14.70;65.50
41628;DHT22;27321;50.816;6.054;2024-03-29T10:34:02;14.70;65.00
41628;DHT22;27321;50.816;6.054;2024-03-29T10:37:10;14.80;64.60
41628;DHT22;27321;50.816;6.054;2024-03-29T10:40:14;14.80;64.80
41628;DHT22;27321;50.816;6.054;2024-03-29T10:43:16;14.80;64.40
41628;DHT22;27321;50.816;6.054;2024-03-29T10:46:18;14.80;64.10
41628;DHT22;27321;50.816;6.054;2024-03-29T10:49:23;14.80;63.50
41628;DHT22;27321;50.816;6.054;2024-03-29T10:52:25;14.70;64.10
41628;DHT22;27321;50.816;6.054;2024-03-29T10:55:35;14.70;64.60
41628;DHT22;27321;50.816;6.054;2024-03-29T10:58:40;14.70;63.80
41628;DHT22;27321;50.816;6.054;2024-03-29T11:02:00;14.70;64.50
41628;DHT22;27321;50.816;6.054;2024-03-29T11:05:09;14.80;65.20
41628;DHT22;27321;50.816;6.054;2024-03-29T11:08:19;14.80;64.70
41628;DHT22;27321;50.816;6.054;2024-03-29T11:11:24;14.80;63.80
41628;DHT22;27321;50.816;6.054;2024-03-29T11:14:40;15.00;63.90
41628;DHT22;27321;50.816;6.054;2024-03-29T11:17:43;15.00;64.10
41628;DHT22;27321;50.816;6.054;2024-03-29T11:20:46;15.10;64.70
41628;DHT22;27321;50.816;6.054;2024-03-29T11:23:59;15.20;63.20
41628;DHT22;27321;50.816;6.054;2024-03-29T11:27:09;15.30;63.40
41628;DHT22;27321;50.816;6.054;2024-03-29T11:30:11;15.20;63.40
41628;DHT22;27321;50.816;6.054;2024-03-29T11:33:29;15.20;62.90
41628;DHT22;27321;50.816;6.054;2024-03-29T11:36:32;15.20;62.40
41628;DHT22;27321;50.816;6.054;2024-03-29T11:39:33;15.20;62.30
41628;DHT22;27321;50.816;6.054;2024-03-29T11:42:37;15.20;62.50
41628;DHT22;27321;50.816;6.054;2024-03-29T11:45:40;15.10;62.30
41628;DHT22;27321;50.816;6.054;2024-03-29T11:48:41;15.10;63.00
41628;DHT22;27321;50.816;6.054;2024-03-29T11:51:42;15.00;61.60
41628;DHT22;27321;50.816;6.054;2024-03-29T11:54:43;14.90;61.90
41628;DHT22;27321;50.816;6.054;2024-03-29T11:57:44;14.90;62.70
41628;DHT22;27321;50.816;6.054;2024-03-29T12:00:45;14.90;62.10
41628;DHT22;27321;50.816;6.054;2024-03-29T12:03:48;14.90;62.20
41628;DHT22;27321;50.816;6.054;2024-03-29T12:06:49;15.00;62.20
41628;DHT22;27321;50.816;6.054;2024-03-29T12:09:50;15.10;62.60
41628;DHT22;27321;50.816;6.054;2024-03-29T12:12:52;15.20;62.20
41628;DHT22;27321;50.816;6.054;2024-03-29T12:15:57;15.20;62.20
41628;DHT22;27321;50.816;6.054;2024-03-29T12:18:59;15.30;62.50
41628;DHT22;27321;50.816;6.054;2024-03-29T12:22:03;15.20;62.10
41628;DHT22;27321;50.816;6.054;2024-03-29T12:25:04;15.20;61.60
41628;DHT22;27321;50.816;6.054;2024-03-29T12:28:05;15.20;61.80
41628;DHT22;27321;50.816;6.054;2024-03-29T12:31:09;15.30;62.10
41628;DHT22;27321;50.816;6.054;2024-03-29T12:34:10;15.30;62.20
41628;DHT22;27321;50.816;6.054;2024-03-29T12:37:12;15.40;62.00
41628;DHT22;27321;50.816;6.054;2024-03-29T12:40:13;15.40;61.80
41628;DHT22;27321;50.816;6.054;2024-03-29T12:43:23;15.50;61.20
41628;DHT22;27321;50.816;6.054;2024-03-29T12:46:25;15.50;61.50
41628;DHT22;27321;50.816;6.054;2024-03-29T12:49:27;15.50;61.60
41628;DHT22;27321;50.816;6.054;2024-03-29T12:52:39;15.60;61.20
41628;DHT22;27321;50.816;6.054;2024-03-29T12:55:41;15.60;61.30
41628;DHT22;27321;50.816;6.054;2024-03-29T12:58:46;15.70;61.50
41628;DHT22;27321;50.816;6.054;2024-03-29T13:01:46;15.70;61.80
41628;DHT22;27321;50.816;6.054;2024-03-29T13:04:47;15.80;61.10
41628;DHT22;27321;50.816;6.054;2024-03-29T13:07:49;15.90;61.50
41628;DHT22;27321;50.816;6.054;2024-03-29T13:10:50;15.90;60.10
41628;DHT22;27321;50.816;6.054;2024-03-29T13:13:51;15.90;60.10
41628;DHT22;27321;50.816;6.054;2024-03-29T13:16:52;16.00;60.80
41628;DHT22;27321;50.816;6.054;2024-03-29T13:19:52;16.10;60.30
41628;DHT22;27321;50.816;6.054;2024-03-29T13:22:53;16.10;60.10
41628;DHT22;27321;50.816;6.054;2024-03-29T13:25:56;16.10;60.60
41628;DHT22;27321;50.816;6.054;2024-03-29T13:28:58;16.20;60.60
41628;DHT22;27321;50.816;6.054;2024-03-29T13:31:59;16.30;60.70
41628;DHT22;27321;50.816;6.054;2024-03-29T13:35:00;16.30;60.30
41628;DHT22;27321;50.816;6.054;2024-03-29T13:38:03;16.40;59.60
41628;DHT22;27321;50.816;6.054;2024-03-29T13:41:04;16.50;59.30
41628;DHT22;27321;50.816;6.054;2024-03-29T13:44:09;16.50;59.10
41628;DHT22;27321;50.816;6.054;2024-03-29T13:47:10;16.50;57.10
41628;DHT22;27321;50.816;6.054;2024-03-29T13:50:16;16.40;57.60
41628;DHT22;27321;50.816;6.054;2024-03-29T13:53:17;16.50;57.80
41628;DHT22;27321;50.816;6.054;2024-03-29T13:56:18;16.50;57.10
41628;DHT22;27321;50.816;6.054;2024-03-29T13:59:19;16.50;57.10
41628;DHT22;27321;50.816;6.054;2024-03-29T14:02:21;16.50;57.00
41628;DHT22;27321;50.816;6.054;2024-03-29T14:05:23;16.50;56.40
41628;DHT22;27321;50.816;6.054;2024-03-29T14:08:24;16.50;55.20
41628;DHT22;27321;50.816;6.054;2024-03-29T14:11:27;16.50;55.80
41628;DHT22;27321;50.816;6.054;2024-03-29T14:14:28;16.50;56.80
41628;DHT22;27321;50.816;6.054;2024-03-29T14:17:29;16.60;56.00
41628;DHT22;27321;50.816;6.054;2024-03-29T14:20:30;16.60;54.80
41628;DHT22;27321;50.816;6.054;2024-03-29T14:23:31;16.60;56.40
41628;DHT22;27321;50.816;6.054;2024-03-29T14:26:32;16.70;55.30
41628;DHT22;27321;50.816;6.054;2024-03-29T14:29:33;16.80;56.00
41628;DHT22;27321;50.816;6.054;2024-03-29T14:32:38;16.80;55.60
41628;DHT22;27321;50.816;6.054;2024-03-29T14:39:33;16.80;55.20
41628;DHT22;27321;50.816;6.054;2024-03-29T14:42:36;16.70;55.30
41628;DHT22;27321;50.816;6.054;2024-03-29T14:45:37;16.60;55.20
41628;DHT22;27321;50.816;6.054;2024-03-29T14:48:38;16.60;54.90
41628;DHT22;27321;50.816;6.054;2024-03-29T14:51:40;16.50;55.10
41628;DHT22;27321;50.816;6.054;2024-03-29T14:54:41;16.30;55.00
41628;DHT22;27321;50.816;6.054;2024-03-29T14:57:42;16.30;55.80
41628;DHT22;27321;50.816;6.054;2024-03-29T15:00:43;16.30;55.90
41628;DHT22;27321;50.816;6.054;2024-03-29T15:03:47;16.30;56.30
41628;DHT22;27321;50.816;6.054;2024-03-29T15:06:48;16.40;56.70
41628;DHT22;27321;50.816;6.054;2024-03-29T15:09:50;16.50;56.90
41628;DHT22;27321;50.816;6.054;2024-03-29T15:12:51;16.50;56.80
41628;DHT22;27321;50.816;6.054;2024-03-29T15:15:54;16.50;57.10
41628;DHT22;27321;50.816;6.054;2024-03-29T15:18:59;16.50;57.50
41628;DHT22;27321;50.816;6.054;2024-03-29T15:22:00;16.40;57.10
41628;DHT22;27321;50.816;6.054;2024-03-29T15:25:25;16.30;57.40
41628;DHT22;27321;50.816;6.054;2024-03-29T15:28:27;16.30;57.30
41628;DHT22;27321;50.816;6.054;2024-03-29T15:31:46;16.20;57.50
41628;DHT22;27321;50.816;6.054;2024-03-29T15:34:47;16.20;58.00
41628;DHT22;27321;50.816;6.054;2024-03-29T15:37:48;16.10;57.60
41628;DHT22;27321;50.816;6.054;2024-03-29T15:40:53;16.10;57.90
41628;DHT22;27321;50.816;6.054;2024-03-29T15:43:54;16.00;57.90
41628;DHT22;27321;50.816;6.054;2024-03-29T15:46:55;16.00;58.40
41628;DHT22;27321;50.816;6.054;2024-03-29T15:49:56;16.00;58.00
41628;DHT22;27321;50.816;6.054;2024-03-29T15:52:57;15.90;57.90
41628;DHT22;27321;50.816;6.054;2024-03-29T15:55:58;15.80;58.60
41628;DHT22;27321;50.816;6.054;2024-03-29T15:58:59;15.80;59.10
41628;DHT22;27321;50.816;6.054;2024-03-29T16:02:00;15.80;59.20
41628;DHT22;27321;50.816;6.054;2024-03-29T16:05:02;15.90;59.60
41628;DHT22;27321;50.816;6.054;2024-03-29T16:08:04;15.90;59.90
41628;DHT22;27321;50.816;6.054;2024-03-29T16:11:07;15.90;59.70
41628;DHT22;27321;50.816;6.054;2024-03-29T16:14:08;15.90;59.80
41628;DHT22;27321;50.816;6.054;2024-03-29T16:17:09;16.00;60.20
41628;DHT22;27321;50.816;6.054;2024-03-29T16:20:10;16.00;60.20
41628;DHT22;27321;50.816;6.054;2024-03-29T16:23:12;15.90;59.60
41628;DHT22;27321;50.816;6.054;2024-03-29T16:26:13;15.80;59.70
41628;DHT22;27321;50.816;6.054;2024-03-29T16:29:14;15.80;59.90
41628;DHT22;27321;50.816;6.054;2024-03-29T16:32:15;15.70;60.40
41628;DHT22;27321;50.816;6.054;2024-03-29T16:35:17;15.60;60.60
41628;DHT22;27321;50.816;6.054;2024-03-29T16:38:18;15.60;60.60
41628;DHT22;27321;50.816;6.054;2024-03-29T16:41:22;15.60;60.80
41628;DHT22;27321;50.816;6.054;2024-03-29T16:44:23;15.60;60.50
41628;DHT22;27321;50.816;6.054;2024-03-29T16:47:25;15.60;61.10
41628;DHT22;27321;50.816;6.054;2024-03-29T16:50:26;15.60;60.90
41628;DHT22;27321;50.816;6.054;2024-03-29T16:53:27;15.70;61.10
41628;DHT22;27321;50.816;6.054;2024-03-29T16:56:31;15.60;61.20
41628;DHT22;27321;50.816;6.054;2024-03-29T16:59:32;15.60;61.50
41628;DHT22;27321;50.816;6.054;2024-03-29T17:02:35;15.60;61.30
41628;DHT22;27321;50.816;6.054;2024-03-29T17:05:36;15.50;61.10
41628;DHT22;27321;50.816;6.054;2024-03-29T17:08:37;15.50;61.30
41628;DHT22;27321;50.816;6.054;2024-03-29T17:11:38;15.50;61.60
41628;DHT22;27321;50.816;6.054;2024-03-29T17:14:39;15.40;61.60
41628;DHT22;27321;50.816;6.054;2024-03-29T17:17:40;15.40;61.80
41628;DHT22;27321;50.816;6.054;2024-03-29T17:20:40;15.40;61.80
41628;DHT22;27321;50.816;6.054;2024-03-29T17:23:41;15.50;61.90
41628;DHT22;27321;50.816;6.054;2024-03-29T17:26:42;15.50;61.70
41628;DHT22;27321;50.816;6.054;2024-03-29T17:29:43;15.50;61.60
41628;DHT22;27321;50.816;6.054;2024-03-29T17:32:44;15.50;61.60
41628;DHT22;27321;50.816;6.054;2024-03-29T17:35:45;15.50;61.50
41628;DHT22;27321;50.816;6.054;2024-03-29T17:38:46;15.40;61.70
41628;DHT22;27321;50.816;6.054;2024-03-29T17:41:47;15.40;61.60
41628;DHT22;27321;50.816;6.054;2024-03-29T17:44:48;15.30;61.90
41628;DHT22;27321;50.816;6.054;2024-03-29T17:47:49;15.30;62.10
41628;DHT22;27321;50.816;6.054;2024-03-29T17:50:50;15.30;62.00
41628;DHT22;27321;50.816;6.054;2024-03-29T17:53:54;15.30;62.20
41628;DHT22;27321;50.816;6.054;2024-03-29T17:56:55;15.30;61.90
41628;DHT22;27321;50.816;6.054;2024-03-29T17:59:56;15.30;61.90
41628;DHT22;27321;50.816;6.054;2024-03-29T18:02:57;15.30;62.10
41628;DHT22;27321;50.816;6.054;2024-03-29T18:05:58;15.20;62.20
41628;DHT22;27321;50.816;6.054;2024-03-29T18:08:58;15.10;62.20
41628;DHT22;27321;50.816;6.054;2024-03-29T18:11:59;15.20;62.50
41628;DHT22;27321;50.816;6.054;2024-03-29T18:15:25;15.10;62.10
41628;DHT22;27321;50.816;6.054;2024-03-29T18:18:26;15.00;62.40
41628;DHT22;27321;50.816;6.054;2024-03-29T18:21:27;14.90;62.80
41628;DHT22;27321;50.816;6.054;2024-03-29T18:24:28;14.90;62.80
41628;DHT22;27321;50.816;6.054;2024-03-29T18:27:29;14.80;63.10
41628;DHT22;27321;50.816;6.054;2024-03-29T18:30:34;14.80;63.20
41628;DHT22;27321;50.816;6.054;2024-03-29T18:33:39;14.80;63.30
41628;DHT22;27321;50.816;6.054;2024-03-29T18:36:40;14.70;63.80
41628;DHT22;27321;50.816;6.054;2024-03-29T18:39:41;14.70;63.90
41628;DHT22;27321;50.816;6.054;2024-03-29T18:42:46;14.70;63.90
41628;DHT22;27321;50.816;6.054;2024-03-29T18:45:48;14.70;63.90
41628;DHT22;27321;50.816;6.054;2024-03-29T18:48:49;14.60;63.90
41628;DHT22;27321;50.816;6.054;2024-03-29T18:51:49;14.60;63.90
41628;DHT22;27321;50.816;6.054;2024-03-29T18:54:50;14.70;63.60
41628;DHT22;27321;50.816;6.054;2024-03-29T18:57:51;14.70;63.80
41628;DHT22;27321;50.816;6.054;2024-03-29T19:00:53;14.60;63.40
41628;DHT22;27321;50.816;6.054;2024-03-29T19:03:54;14.50;63.60
41628;DHT22;27321;50.816;6.054;2024-03-29T19:06:55;14.40;63.70
41628;DHT22;27321;50.816;6.054;2024-03-29T19:09:56;14.50;63.90
41628;DHT22;27321;50.816;6.054;2024-03-29T19:12:57;14.40;63.90
41628;DHT22;27321;50.816;6.054;2024-03-29T19:15:58;14.40;63.90
41628;DHT22;27321;50.816;6.054;2024-03-29T19:18:59;14.50;63.70